Time;durP1;ratioP1;P1;durP2;ratioP2;P2;SDS_P1;SDS_P2;PMS_P1;PMS_P2;Temp;Humidity;BMP_temperature;BMP_pressure;BME280_temperature;BME280_humidity;BME280_pressure;Samples;Min_cycle;Max_cycle;Signal;HPM_P1;HPM_P2
2023/07/24 00:01:18;;;;;;;0.75;0.52;;;15.90;99.90;;;;;;5068252;28;20068;-67
2023/07/24 00:03:44;;;;;;;1.15;0.50;;;16.00;99.90;;;;;;5050117;28;20060;-67
2023/07/24 00:06:10;;;;;;;0.60;0.30;;;16.00;99.90;;;;;;5050346;28;20377;-67
2023/07/24 00:08:36;;;;;;;1.75;0.52;;;16.10;99.90;;;;;;5069409;28;20036;-67
2023/07/24 00:11:04;;;;;;;0.73;0.20;;;16.20;99.90;;;;;;5066233;28;20044;-67
2023/07/24 00:13:30;;;;;;;1.13;0.40;;;16.20;99.90;;;;;;5069784;28;20128;-67
2023/07/24 00:15:57;;;;;;;0.60;0.30;;;16.20;99.90;;;;;;5070721;28;20131;-67
2023/07/24 00:18:23;;;;;;;0.55;0.30;;;16.20;99.90;;;;;;5069553;28;20452;-66
2023/07/24 00:20:48;;;;;;;0.93;0.40;;;16.20;99.90;;;;;;5043550;28;20037;-67
2023/07/24 00:23:14;;;;;;;2.58;0.88;;;16.20;99.90;;;;;;5051575;28;20794;-67
2023/07/24 00:25:39;;;;;;;2.40;0.50;;;16.20;99.90;;;;;;5052143;28;20058;-67
2023/07/24 00:28:05;;;;;;;1.20;0.60;;;16.10;99.90;;;;;;5072921;28;20044;-67
2023/07/24 00:30:31;;;;;;;1.75;0.70;;;16.10;99.90;;;;;;5054839;28;20608;-67
2023/07/24 00:32:57;;;;;;;1.25;0.30;;;16.10;99.90;;;;;;5073055;28;20036;-67
2023/07/24 00:35:22;;;;;;;1.13;0.57;;;16.10;99.90;;;;;;5072715;28;20127;-67
2023/07/24 00:37:48;;;;;;;1.17;0.65;;;16.10;99.90;;;;;;5072910;28;20067;-67
2023/07/24 00:40:14;;;;;;;1.20;0.68;;;16.10;99.90;;;;;;5054756;28;20483;-67
2023/07/24 00:42:40;;;;;;;1.65;0.77;;;16.10;99.90;;;;;;5071859;28;20033;-67
2023/07/24 00:45:06;;;;;;;1.25;0.65;;;16.10;99.90;;;;;;5037422;28;20451;-67
2023/07/24 00:47:32;;;;;;;2.45;1.05;;;16.10;99.90;;;;;;5054520;28;20041;-67
2023/07/24 00:49:58;;;;;;;1.48;0.75;;;16.10;99.90;;;;;;5072434;28;20567;-67
2023/07/24 00:52:24;;;;;;;1.83;0.63;;;16.10;99.90;;;;;;5051154;28;20037;-67
2023/07/24 00:54:50;;;;;;;1.58;0.80;;;16.10;99.90;;;;;;5072731;28;20032;-67
2023/07/24 00:57:16;;;;;;;1.10;0.75;;;16.10;99.90;;;;;;5050920;28;20051;-67
2023/07/24 00:59:42;;;;;;;2.22;0.88;;;16.20;99.90;;;;;;5073117;28;20029;-67
2023/07/24 01:02:08;;;;;;;1.98;0.90;;;16.10;99.90;;;;;;5052599;28;20076;-67
2023/07/24 01:04:34;;;;;;;1.73;0.70;;;16.10;99.90;;;;;;5072299;28;20090;-67
2023/07/24 01:07:00;;;;;;;3.80;1.15;;;16.10;99.90;;;;;;5071662;28;20327;-66
2023/07/24 01:09:26;;;;;;;1.17;0.82;;;16.10;99.90;;;;;;5054179;28;20048;-67
2023/07/24 01:12:10;;;;;;;1.75;0.95;;;16.10;99.90;;;;;;5053024;28;20051;-66
2023/07/24 01:14:49;;;;;;;1.23;0.77;;;16.10;99.90;;;;;;5069551;28;20085;-67
2023/07/24 01:17:20;;;;;;;2.05;0.80;;;16.10;99.90;;;;;;5068309;28;20057;-67
2023/07/24 01:19:54;;;;;;;1.63;0.80;;;16.10;99.90;;;;;;5072189;28;20049;-67
2023/07/24 01:22:28;;;;;;;;;;;16.10;99.90;;;;;;5050578;28;20041;-67
2023/07/24 01:25:01;;;;;;;1.27;0.70;;;16.00;99.90;;;;;;5050217;28;19939;-67
2023/07/24 01:27:27;;;;;;;1.15;0.70;;;16.00;99.90;;;;;;5066208;28;20461;-67
2023/07/24 01:29:52;;;;;;;1.48;0.95;;;16.00;99.90;;;;;;5072077;28;20044;-67
2023/07/24 01:32:21;;;;;;;0.88;0.70;;;16.00;99.90;;;;;;5051676;28;20434;-67
2023/07/24 01:34:48;;;;;;;0.45;0.32;;;16.00;99.90;;;;;;5050828;28;20393;-67
2023/07/24 01:37:14;;;;;;;2.17;0.82;;;16.10;99.90;;;;;;5070397;28;20051;-67
2023/07/24 01:39:45;;;;;;;2.05;0.82;;;16.10;99.90;;;;;;5069197;28;20081;-67
2023/07/24 01:42:12;;;;;;;1.60;0.70;;;16.20;99.90;;;;;;5067032;28;20072;-67
2023/07/24 01:44:37;;;;;;;1.23;0.82;;;16.20;99.90;;;;;;5051026;28;20045;-67
2023/07/24 01:47:03;;;;;;;1.83;0.77;;;16.20;99.90;;;;;;5051149;28;20535;-67
2023/07/24 01:49:29;;;;;;;0.88;0.40;;;16.30;99.90;;;;;;5070956;28;20042;-67
2023/07/24 01:51:54;;;;;;;1.25;0.43;;;16.30;99.90;;;;;;5052975;28;20056;-67
2023/07/24 01:54:20;;;;;;;0.90;0.52;;;16.30;99.90;;;;;;5071183;28;20093;-67
2023/07/24 01:56:46;;;;;;;1.10;0.63;;;16.30;99.90;;;;;;5051984;28;20032;-67
2023/07/24 01:59:11;;;;;;;1.25;0.75;;;16.30;99.90;;;;;;5071574;28;20037;-67
2023/07/24 02:01:37;;;;;;;1.52;0.80;;;16.30;99.90;;;;;;5070284;28;20056;-67
2023/07/24 02:04:03;;;;;;;0.90;0.60;;;16.30;99.90;;;;;;5050068;28;20041;-67
2023/07/24 02:06:29;;;;;;;1.05;0.60;;;16.30;99.90;;;;;;5052417;28;20484;-67
2023/07/24 02:08:54;;;;;;;1.15;0.63;;;16.30;99.90;;;;;;5071468;28;20040;-67
2023/07/24 02:11:20;;;;;;;0.80;0.52;;;16.30;99.90;;;;;;5050788;28;20045;-67
2023/07/24 02:13:46;;;;;;;1.33;0.77;;;16.20;99.90;;;;;;5070538;28;20436;-67
2023/07/24 02:16:13;;;;;;;1.75;0.55;;;16.30;99.90;;;;;;5052024;28;20056;-66
2023/07/24 02:18:41;;;;;;;0.95;0.47;;;16.20;99.90;;;;;;5071138;28;20036;-67
2023/07/24 02:21:06;;;;;;;0.55;0.30;;;16.20;99.90;;;;;;5070967;28;20400;-67
2023/07/24 02:23:32;;;;;;;1.05;0.63;;;16.10;99.90;;;;;;5068990;28;20039;-67
2023/07/24 02:25:58;;;;;;;0.65;0.32;;;16.20;99.90;;;;;;5069731;28;20047;-67
2023/07/24 02:28:24;;;;;;;1.15;0.60;;;16.10;99.90;;;;;;5070983;28;20112;-67
2023/07/24 02:30:51;;;;;;;1.58;0.60;;;16.10;99.90;;;;;;5049095;28;20453;-67
2023/07/24 02:33:17;;;;;;;0.73;0.50;;;16.10;99.90;;;;;;5067394;28;20036;-67
2023/07/24 02:35:43;;;;;;;1.60;0.73;;;16.10;99.90;;;;;;5070458;28;20049;-67
2023/07/24 02:38:09;;;;;;;0.90;0.57;;;16.20;99.90;;;;;;5069665;28;20107;-67
2023/07/24 02:40:35;;;;;;;1.10;0.70;;;16.20;99.90;;;;;;5051084;28;20643;-67
2023/07/24 02:43:01;;;;;;;0.88;0.57;;;16.20;99.90;;;;;;5068770;28;20036;-67
2023/07/24 02:45:27;;;;;;;1.38;0.50;;;16.20;99.90;;;;;;5070040;28;20059;-67
2023/07/24 02:47:52;;;;;;;1.02;0.40;;;16.20;99.90;;;;;;5048952;28;20586;-67
2023/07/24 02:50:18;;;;;;;0.98;0.50;;;16.20;99.90;;;;;;5070447;28;20131;-67
2023/07/24 02:52:44;;;;;;;1.30;0.40;;;16.20;99.90;;;;;;5052059;28;20044;-67
2023/07/24 02:55:10;;;;;;;2.13;0.68;;;16.20;99.90;;;;;;5070631;28;20036;-67
2023/07/24 02:57:35;;;;;;;0.93;0.50;;;16.20;99.90;;;;;;5052652;28;20558;-67
2023/07/24 03:00:01;;;;;;;1.00;0.60;;;16.20;99.90;;;;;;5070619;28;20044;-67
2023/07/24 03:02:27;;;;;;;1.30;0.73;;;16.20;99.90;;;;;;5069966;28;20081;-66
2023/07/24 03:04:53;;;;;;;1.42;0.50;;;16.20;99.90;;;;;;5051422;28;20041;-67
2023/07/24 03:07:18;;;;;;;0.65;0.30;;;16.10;99.90;;;;;;5051991;28;20059;-67
2023/07/24 03:09:44;;;;;;;1.73;0.60;;;16.10;99.90;;;;;;5050482;28;20044;-67
2023/07/24 03:12:11;;;;;;;0.80;0.45;;;16.00;99.90;;;;;;5069559;28;20102;-67
2023/07/24 03:14:36;;;;;;;0.65;0.38;;;16.00;99.90;;;;;;5070898;28;20040;-67
2023/07/24 03:17:02;;;;;;;1.02;0.57;;;16.00;99.90;;;;;;5050083;28;20053;-67
2023/07/24 03:19:28;;;;;;;1.33;0.52;;;15.90;99.90;;;;;;5052286;28;20071;-67
2023/07/24 03:21:54;;;;;;;1.35;0.68;;;15.90;99.90;;;;;;5051664;28;20134;-67
2023/07/24 03:24:19;;;;;;;0.50;0.25;;;15.90;99.90;;;;;;5068825;28;20047;-67
2023/07/24 03:26:45;;;;;;;1.48;0.60;;;15.80;99.90;;;;;;5068350;28;20056;-67
2023/07/24 03:29:10;;;;;;;1.27;0.60;;;15.80;99.90;;;;;;5069312;28;20492;-67
2023/07/24 03:31:36;;;;;;;1.00;0.60;;;15.80;99.90;;;;;;5067482;28;20035;-67
2023/07/24 03:34:02;;;;;;;0.65;0.50;;;15.80;99.90;;;;;;5069185;28;20045;-67
2023/07/24 03:36:27;;;;;;;0.80;0.40;;;15.80;99.90;;;;;;5050889;28;20499;-67
2023/07/24 03:38:53;;;;;;;1.45;0.60;;;15.80;99.90;;;;;;5069459;28;20040;-66
2023/07/24 03:41:19;;;;;;;0.80;0.40;;;15.70;99.90;;;;;;5049977;28;20563;-67
2023/07/24 03:43:44;;;;;;;0.73;0.43;;;15.70;99.90;;;;;;5068319;28;20115;-67
2023/07/24 03:46:10;;;;;;;0.85;0.47;;;15.70;99.90;;;;;;5069688;28;20048;-67
2023/07/24 03:48:36;;;;;;;1.23;0.52;;;15.70;99.90;;;;;;5051434;28;20024;-67
2023/07/24 03:51:02;;;;;;;1.40;0.40;;;15.70;99.90;;;;;;5069968;28;20051;-67
2023/07/24 03:53:28;;;;;;;1.38;0.60;;;15.70;99.90;;;;;;5068098;28;20431;-67
2023/07/24 03:55:54;;;;;;;1.65;0.68;;;15.80;99.90;;;;;;5068441;28;20044;-67
2023/07/24 03:58:20;;;;;;;1.10;0.80;;;15.80;99.90;;;;;;5070061;28;20177;-67
2023/07/24 04:00:46;;;;;;;0.70;0.50;;;15.80;99.90;;;;;;5055365;28;20048;-67
2023/07/24 04:03:12;;;;;;;3.15;0.60;;;15.80;99.90;;;;;;5072977;28;20040;-67
2023/07/24 04:05:38;;;;;;;1.38;0.40;;;15.80;99.90;;;;;;5073532;28;20036;-67
2023/07/24 04:08:03;;;;;;;1.13;0.50;;;15.80;99.90;;;;;;5073424;28;20052;-67
2023/07/24 04:10:30;;;;;;;0.88;0.65;;;15.80;99.90;;;;;;5052939;28;20803;-67
2023/07/24 04:12:57;;;;;;;0.90;0.50;;;15.90;99.90;;;;;;5055558;28;20101;-67
2023/07/24 04:15:23;;;;;;;5.97;0.90;;;15.90;99.90;;;;;;5073377;28;20106;-67
2023/07/24 04:17:48;;;;;;;2.00;0.70;;;15.90;99.90;;;;;;5052674;28;20128;-67
2023/07/24 04:20:14;;;;;;;0.90;0.40;;;15.90;99.90;;;;;;5073203;28;20115;-67
2023/07/24 04:22:40;;;;;;;1.13;0.73;;;15.90;99.90;;;;;;5071230;28;20074;-67
2023/07/24 04:25:06;;;;;;;0.45;0.30;;;16.00;99.90;;;;;;5069699;28;20473;-67
2023/07/24 04:27:32;;;;;;;0.85;0.40;;;16.00;99.90;;;;;;5072146;28;20032;-67
2023/07/24 04:29:57;;;;;;;0.98;0.50;;;16.00;99.90;;;;;;5073315;28;20051;-67
2023/07/24 04:32:23;;;;;;;1.00;0.50;;;16.00;99.90;;;;;;5054226;28;20240;-67
2023/07/24 04:34:49;;;;;;;1.27;0.45;;;16.00;99.90;;;;;;5073223;28;20166;-67
2023/07/24 04:37:14;;;;;;;4.10;0.85;;;16.00;99.90;;;;;;5054307;28;20428;-67
2023/07/24 04:39:40;;;;;;;1.08;0.45;;;16.00;99.90;;;;;;5072078;28;20043;-66
2023/07/24 04:42:06;;;;;;;1.73;0.85;;;16.00;99.90;;;;;;5070391;28;20045;-67
2023/07/24 04:44:32;;;;;;;0.98;0.50;;;16.00;99.90;;;;;;5072965;28;20083;-67
2023/07/24 04:46:58;;;;;;;1.10;0.52;;;16.00;99.90;;;;;;5071697;28;20051;-66
2023/07/24 04:49:24;;;;;;;1.75;0.65;;;16.00;99.90;;;;;;5053348;28;20079;-66
2023/07/24 04:51:51;;;;;;;0.88;0.55;;;16.00;99.90;;;;;;5072286;28;20124;-66
2023/07/24 04:54:17;;;;;;;1.58;0.65;;;16.00;99.90;;;;;;5070255;28;20044;-66
2023/07/24 04:56:43;;;;;;;1.00;0.65;;;16.00;99.90;;;;;;5071405;28;20452;-66
2023/07/24 04:59:08;;;;;;;1.73;1.17;;;16.10;99.90;;;;;;5071557;28;20083;-67
2023/07/24 05:01:34;;;;;;;1.55;0.75;;;16.10;99.90;;;;;;5054014;28;20032;-67
2023/07/24 05:04:00;;;;;;;0.85;0.40;;;16.10;99.90;;;;;;5052527;28;20045;-66
2023/07/24 05:06:26;;;;;;;1.02;0.82;;;16.10;99.90;;;;;;5053940;28;20391;-66
2023/07/24 05:08:53;;;;;;;1.38;0.60;;;16.10;99.90;;;;;;5071996;28;20123;-67
2023/07/24 05:11:19;;;;;;;1.58;0.70;;;16.10;99.90;;;;;;5071215;28;20440;-67
2023/07/24 05:13:44;;;;;;;1.98;0.82;;;16.10;99.90;;;;;;5053888;28;20120;-66
2023/07/24 05:16:10;;;;;;;1.45;0.57;;;16.10;99.90;;;;;;5072754;28;20071;-67
2023/07/24 05:18:36;;;;;;;1.52;0.85;;;16.10;99.90;;;;;;5051627;28;20063;-67
2023/07/24 05:21:01;;;;;;;1.33;0.57;;;16.20;99.90;;;;;;5072028;28;20036;-67
2023/07/24 05:23:27;;;;;;;1.42;0.60;;;16.20;99.90;;;;;;5066455;28;20396;-67
2023/07/24 05:25:58;;;;;;;1.30;0.77;;;16.30;99.90;;;;;;5052684;28;20048;-67
2023/07/24 05:28:25;;;;;;;1.17;0.73;;;16.40;99.90;;;;;;5069021;28;20078;-67
2023/07/24 05:30:51;;;;;;;1.45;0.57;;;16.40;99.90;;;;;;5051255;28;20045;-66
2023/07/24 05:33:17;;;;;;;1.00;0.52;;;16.50;99.90;;;;;;5069972;28;20101;-67
2023/07/24 05:35:43;;;;;;;1.05;0.75;;;16.60;99.90;;;;;;5071591;28;20097;-67
2023/07/24 05:38:09;;;;;;;1.05;0.50;;;16.60;99.90;;;;;;5068711;28;20033;-66
2023/07/24 05:40:35;;;;;;;2.03;0.88;;;16.70;99.90;;;;;;5052832;28;20138;-66
2023/07/24 05:43:00;;;;;;;1.73;0.98;;;16.70;99.90;;;;;;5070117;28;20535;-67
2023/07/24 05:45:27;;;;;;;0.75;0.47;;;16.70;99.90;;;;;;5071315;28;20040;-67
2023/07/24 05:47:53;;;;;;;1.27;0.70;;;16.80;99.90;;;;;;5051901;28;20416;-67
2023/07/24 05:50:19;;;;;;;1.20;0.63;;;16.90;99.90;;;;;;5071131;28;20044;-67
2023/07/24 05:52:44;;;;;;;1.42;0.70;;;16.90;99.90;;;;;;5068329;28;20041;-66
2023/07/24 05:55:10;;;;;;;0.85;0.52;;;17.00;99.90;;;;;;5049187;28;20041;-67
2023/07/24 05:57:36;;;;;;;1.02;0.68;;;17.00;99.90;;;;;;5070008;28;20047;-66
2023/07/24 06:00:04;;;;;;;1.38;0.50;;;17.00;99.90;;;;;;5071205;28;20118;-67
2023/07/24 06:02:30;;;;;;;0.77;0.25;;;17.10;99.90;;;;;;5070565;28;20050;-67
2023/07/24 06:04:55;;;;;;;0.93;0.60;;;17.10;99.90;;;;;;5071254;28;20032;-67
2023/07/24 06:07:21;;;;;;;1.17;0.88;;;17.10;99.90;;;;;;5053036;28;20381;-67
2023/07/24 06:09:47;;;;;;;1.38;0.82;;;17.10;99.90;;;;;;5069611;28;20082;-67
2023/07/24 06:12:12;;;;;;;1.50;0.52;;;17.20;99.90;;;;;;5069960;28;20266;-67
2023/07/24 06:14:38;;;;;;;2.55;0.90;;;17.20;99.90;;;;;;5070477;28;20032;-67
2023/07/24 06:17:04;;;;;;;2.33;0.80;;;17.30;99.90;;;;;;5070512;28;20140;-67
2023/07/24 06:19:30;;;;;;;3.55;0.90;;;17.40;99.90;;;;;;5070404;28;20075;-67
2023/07/24 06:21:56;;;;;;;1.15;0.70;;;17.50;99.90;;;;;;5070002;28;20420;-66
2023/07/24 06:24:23;;;;;;;1.08;0.82;;;17.60;99.90;;;;;;5070079;28;20111;-67
2023/07/24 06:26:49;;;;;;;3.85;1.08;;;17.70;99.90;;;;;;5070209;28;20044;-67
2023/07/24 06:29:15;;;;;;;1.10;0.77;;;17.90;99.90;;;;;;5052141;28;20036;-66
2023/07/24 06:31:41;;;;;;;0.95;0.65;;;17.90;99.90;;;;;;5051962;28;20037;-67
2023/07/24 06:34:07;;;;;;;1.48;0.60;;;18.00;99.90;;;;;;5068941;28;20402;-67
2023/07/24 06:36:32;;;;;;;0.45;0.40;;;18.10;99.90;;;;;;5051901;28;20116;-67
2023/07/24 06:38:58;;;;;;;0.73;0.60;;;18.20;99.90;;;;;;5045288;28;20128;-66
2023/07/24 06:41:24;;;;;;;0.98;0.30;;;18.30;99.90;;;;;;5051945;28;20460;-67
2023/07/24 06:43:51;;;;;;;1.17;0.82;;;18.30;99.90;;;;;;5052007;28;20055;-67
2023/07/24 06:46:17;;;;;;;1.15;0.70;;;18.40;99.90;;;;;;5027726;28;20059;-66
2023/07/24 06:48:42;;;;;;;2.08;1.13;;;18.50;99.90;;;;;;5069357;28;20068;-66
2023/07/24 06:51:08;;;;;;;1.48;0.65;;;18.60;99.90;;;;;;5070539;28;20044;-67
2023/07/24 06:53:34;;;;;;;1.45;0.40;;;18.60;99.90;;;;;;5069579;28;20043;-67
2023/07/24 06:56:00;;;;;;;0.80;0.60;;;18.70;99.90;;;;;;5069322;28;20036;-66
2023/07/24 06:58:25;;;;;;;0.65;0.45;;;18.70;99.90;;;;;;5035560;28;20534;-67
2023/07/24 07:00:51;;;;;;;1.42;0.70;;;18.70;99.90;;;;;;5070282;28;20040;-67
2023/07/24 07:03:17;;;;;;;1.65;0.73;;;18.70;99.90;;;;;;5068713;28;20591;-66
2023/07/24 07:05:42;;;;;;;0.98;0.57;;;18.80;99.90;;;;;;5070084;28;20122;-67
2023/07/24 07:08:08;;;;;;;1.58;0.52;;;18.80;99.90;;;;;;5051865;28;20083;-66
2023/07/24 07:10:34;;;;;;;6.78;0.47;;;18.90;99.90;;;;;;5069393;28;20044;-67
2023/07/24 07:12:59;;;;;;;1.25;0.65;;;18.90;99.90;;;;;;5070093;28;20407;-66
2023/07/24 07:15:25;;;;;;;3.22;0.52;;;18.90;99.90;;;;;;5071132;28;20818;-67
2023/07/24 07:17:51;;;;;;;1.92;0.65;;;18.90;99.90;;;;;;5069665;28;20408;-66
2023/07/24 07:20:17;;;;;;;0.75;0.30;;;18.90;99.90;;;;;;5050035;28;20040;-66
2023/07/24 07:22:42;;;;;;;1.50;0.77;;;19.00;99.90;;;;;;5070383;28;20129;-66
2023/07/24 07:25:08;;;;;;;0.93;0.43;;;19.00;99.90;;;;;;5049995;28;20456;-66
2023/07/24 07:27:34;;;;;;;1.00;0.45;;;19.10;99.90;;;;;;5048595;28;20045;-67
2023/07/24 07:30:00;;;;;;;1.15;0.60;;;19.10;99.90;;;;;;5070035;28;20488;-66
2023/07/24 07:32:26;;;;;;;0.47;0.32;;;19.20;99.90;;;;;;5051954;28;20051;-66
2023/07/24 07:34:52;;;;;;;1.38;0.60;;;19.20;99.90;;;;;;5072989;28;20048;-66
2023/07/24 07:37:18;;;;;;;0.70;0.30;;;19.30;99.90;;;;;;5055386;28;20036;-66
2023/07/24 07:39:44;;;;;;;1.52;0.45;;;19.40;99.90;;;;;;5073070;28;20120;-66
2023/07/24 07:42:09;;;;;;;1.38;0.68;;;19.40;99.90;;;;;;5071474;28;20032;-67
2023/07/24 07:44:35;;;;;;;1.05;0.40;;;19.50;99.90;;;;;;5073309;28;20041;-66
2023/07/24 07:47:01;;;;;;;1.25;0.43;;;19.60;99.90;;;;;;5037574;28;20493;-67
2023/07/24 07:49:26;;;;;;;0.85;0.38;;;19.60;99.90;;;;;;5054598;28;20135;-66
2023/07/24 07:51:52;;;;;;;0.40;0.20;;;19.60;99.90;;;;;;5073858;28;20055;-66
2023/07/24 07:54:18;;;;;;;0.43;0.40;;;19.60;99.90;;;;;;5073319;28;20122;-67
2023/07/24 07:56:44;;;;;;;0.60;0.32;;;19.60;99.90;;;;;;5037189;28;20051;-66
2023/07/24 07:59:10;;;;;;;1.13;0.63;;;19.70;99.90;;;;;;5073511;28;20040;-66
2023/07/24 08:01:42;;;;;;;1.85;0.73;;;19.70;99.90;;;;;;5073275;28;20054;-66
2023/07/24 08:04:07;;;;;;;3.78;0.63;;;19.70;99.90;;;;;;5073283;28;20431;-66
2023/07/24 08:06:33;;;;;;;0.80;0.30;;;19.80;99.90;;;;;;5073294;28;20056;-66
2023/07/24 08:08:59;;;;;;;0.82;0.40;;;19.80;99.90;;;;;;5071058;28;20122;-66
2023/07/24 08:11:24;;;;;;;1.63;0.50;;;19.90;99.90;;;;;;5054274;28;20056;-66
2023/07/24 08:13:50;;;;;;;0.80;0.55;;;20.00;99.90;;;;;;5073120;28;20044;-67
2023/07/24 08:16:18;;;;;;;0.85;0.47;;;20.00;99.90;;;;;;5055343;28;20052;-67
2023/07/24 08:18:48;;;;;;;1.88;0.85;;;20.00;99.90;;;;;;5053896;28;20048;-67
2023/07/24 08:21:14;;;;;;;1.02;0.68;;;20.00;99.90;;;;;;5054741;28;20082;-67
2023/07/24 08:23:41;;;;;;;4.25;0.52;;;20.00;99.90;;;;;;5053321;28;20140;-67
2023/07/24 08:26:07;;;;;;;1.50;0.68;;;20.00;99.90;;;;;;5071399;28;20067;-67
2023/07/24 08:28:35;;;;;;;0.52;0.25;;;20.00;99.90;;;;;;5070866;28;20079;-66
2023/07/24 08:31:02;;;;;;;0.88;0.52;;;20.00;99.90;;;;;;5072814;28;20093;-67
2023/07/24 08:33:28;;;;;;;2.88;0.60;;;19.90;99.90;;;;;;5072751;28;20068;-67
2023/07/24 08:36:07;;;;;;;1.00;0.50;;;19.80;99.90;;;;;;5072308;28;20036;-67
2023/07/24 08:38:36;;;;;;;0.80;0.45;;;19.80;99.90;;;;;;5071922;28;20556;-67
2023/07/24 08:41:10;;;;;;;0.63;0.22;;;19.80;99.90;;;;;;5070968;28;20154;-67
2023/07/24 08:43:37;;;;;;;2.88;0.50;;;19.90;99.90;;;;;;5069158;28;20113;-67
2023/07/24 08:46:04;;;;;;;1.23;0.50;;;20.00;99.90;;;;;;5052526;28;20399;-67
2023/07/24 08:48:35;;;;;;;3.70;0.85;;;20.20;99.90;;;;;;5054022;28;20177;-67
2023/07/24 08:51:05;;;;;;;1.58;0.73;;;20.30;99.90;;;;;;5052599;28;20044;-67
2023/07/24 08:53:35;;;;;;;1.35;0.95;;;20.50;99.90;;;;;;5070867;28;20048;-66
2023/07/24 08:56:06;;;;;;;0.70;0.30;;;20.60;99.90;;;;;;5051828;28;20507;-67
2023/07/24 08:58:32;;;;;;;1.50;0.45;;;20.70;99.90;;;;;;5072474;28;20060;-67
2023/07/24 09:00:59;;;;;;;1.20;0.80;;;20.80;99.90;;;;;;5072564;28;20115;-68
2023/07/24 09:03:25;;;;;;;1.13;0.60;;;20.80;99.90;;;;;;5072603;28;20520;-67
2023/07/24 09:05:51;;;;;;;1.67;0.40;;;20.90;99.90;;;;;;5053725;28;20056;-68
2023/07/24 09:08:27;;;;;;;1.23;0.45;;;21.30;99.90;;;;;;5071906;28;20040;-67
2023/07/24 09:10:53;;;;;;;1.15;0.40;;;21.60;99.90;;;;;;5071207;28;20049;-67
2023/07/24 09:13:19;;;;;;;0.80;0.45;;;21.80;99.90;;;;;;5072389;28;20036;-66
2023/07/24 09:15:45;;;;;;;0.47;0.30;;;22.00;99.90;;;;;;5072670;28;20127;-66
2023/07/24 09:18:11;;;;;;;0.60;0.30;;;22.10;99.90;;;;;;5072121;28;20048;-66
2023/07/24 09:20:42;;;;;;;0.80;0.50;;;22.20;99.90;;;;;;5072116;28;20047;-66
2023/07/24 09:23:10;;;;;;;1.00;0.43;;;22.30;99.90;;;;;;5068491;28;20032;-67
2023/07/24 09:25:37;;;;;;;1.13;0.40;;;22.30;99.90;;;;;;5069681;28;20043;-67
2023/07/24 09:28:14;;;;;;;0.77;0.40;;;22.30;99.90;;;;;;5072051;28;20047;-67
2023/07/24 09:30:40;;;;;;;1.05;0.40;;;22.40;99.90;;;;;;5067269;28;20097;-67
2023/07/24 09:33:06;;;;;;;0.60;0.30;;;22.40;99.90;;;;;;5052293;28;20080;-67
2023/07/24 09:35:33;;;;;;;0.52;0.13;;;22.30;99.90;;;;;;5051923;28;20082;-67
2023/07/24 09:38:09;;;;;;;1.45;0.55;;;22.20;99.90;;;;;;5071762;28;20032;-67
2023/07/24 09:40:40;;;;;;;1.90;0.57;;;22.10;99.90;;;;;;5069405;28;20037;-67
2023/07/24 09:43:15;;;;;;;0.73;0.40;;;22.10;99.90;;;;;;5071397;28;20036;-67
2023/07/24 09:45:41;;;;;;;0.65;0.38;;;22.20;99.90;;;;;;5052708;28;20036;-67
2023/07/24 09:48:11;;;;;;;0.70;0.40;;;22.10;99.90;;;;;;5071353;28;20044;-67
2023/07/24 09:50:40;;;;;;;3.00;0.43;;;22.10;99.90;;;;;;5071661;28;20056;-67
2023/07/24 09:53:09;;;;;;;1.38;0.30;;;22.10;99.90;;;;;;5071590;28;20465;-67
2023/07/24 09:55:43;;;;;;;0.55;0.30;;;22.00;99.90;;;;;;5067545;28;20094;-67
2023/07/24 09:58:09;;;;;;;1.70;0.47;;;22.00;99.90;;;;;;5053199;28;20123;-67
2023/07/24 10:00:35;;;;;;;0.63;0.45;;;22.10;99.90;;;;;;5067641;28;20044;-67
2023/07/24 10:03:01;;;;;;;0.80;0.65;;;22.20;99.90;;;;;;5071567;28;20032;-67
2023/07/24 10:05:29;;;;;;;1.08;0.60;;;22.40;99.90;;;;;;5052437;28;20067;-67
2023/07/24 10:07:55;;;;;;;1.58;0.95;;;22.60;99.90;;;;;;5051786;28;20467;-67
2023/07/24 10:10:22;;;;;;;0.68;0.38;;;22.70;99.90;;;;;;5052499;28;20040;-67
2023/07/24 10:12:49;;;;;;;12.52;7.15;;;22.70;99.90;;;;;;5051942;28;20475;-66
2023/07/24 10:15:15;;;;;;;3.80;0.80;;;22.80;99.90;;;;;;5070614;28;20170;-67
2023/07/24 10:17:41;;;;;;;1.17;0.40;;;22.90;99.90;;;;;;5070275;28;20036;-67
2023/07/24 10:20:09;;;;;;;0.73;0.30;;;23.00;99.90;;;;;;5068510;28;20121;-67
2023/07/24 10:22:37;;;;;;;1.38;0.52;;;23.30;99.90;;;;;;5049832;28;20071;-67
2023/07/24 10:25:04;;;;;;;0.88;0.38;;;23.50;99.90;;;;;;5066738;28;20350;-67
2023/07/24 10:27:30;;;;;;;0.85;0.47;;;23.40;99.90;;;;;;5070259;28;20395;-66
2023/07/24 10:30:03;;;;;;;0.75;0.45;;;23.30;99.90;;;;;;5051790;28;20049;-67
2023/07/24 10:32:29;;;;;;;4.65;0.80;;;23.50;99.90;;;;;;5068031;28;20385;-67
2023/07/24 10:35:11;;;;;;;0.85;0.45;;;23.90;99.90;;;;;;5052404;28;20051;-66
2023/07/24 10:37:37;;;;;;;1.23;0.38;;;24.40;99.90;;;;;;5047556;28;20128;-67
2023/07/24 10:40:04;;;;;;;0.75;0.47;;;24.70;99.90;;;;;;5069209;28;20040;-67
2023/07/24 10:42:30;;;;;;;1.90;0.65;;;25.00;99.90;;;;;;5069264;28;20041;-67
2023/07/24 10:45:07;;;;;;;1.13;0.40;;;25.10;99.90;;;;;;5050765;28;20047;-67
2023/07/24 10:47:33;;;;;;;1.20;0.40;;;25.20;99.90;;;;;;5069957;28;20040;-67
2023/07/24 10:50:01;;;;;;;1.52;0.50;;;25.30;99.90;;;;;;5068087;28;20040;-67
2023/07/24 10:52:31;;;;;;;1.00;0.45;;;25.10;99.90;;;;;;5070417;28;20055;-67
2023/07/24 10:54:56;;;;;;;0.55;0.40;;;24.90;99.90;;;;;;5070362;28;20051;-67
2023/07/24 10:57:26;;;;;;;1.15;0.50;;;24.70;99.90;;;;;;5067918;28;20040;-67
2023/07/24 10:59:52;;;;;;;0.73;0.30;;;24.50;99.90;;;;;;5068068;28;20094;-68
2023/07/24 11:02:18;;;;;;;0.73;0.43;;;24.30;99.90;;;;;;5070825;28;20033;-67
2023/07/24 11:04:44;;;;;;;1.42;0.28;;;24.00;99.90;;;;;;5066316;28;20037;-67
2023/07/24 11:07:10;;;;;;;1.48;0.60;;;23.80;99.90;;;;;;5051659;28;20040;-67
2023/07/24 11:09:37;;;;;;;0.40;0.32;;;23.60;99.90;;;;;;5051322;28;20407;-67
2023/07/24 11:12:16;;;;;;;1.98;0.40;;;23.40;99.90;;;;;;5069676;28;20707;-67
2023/07/24 11:14:55;;;;;;;0.63;0.20;;;23.30;99.90;;;;;;5069465;28;20036;-66
2023/07/24 11:17:22;;;;;;;2.88;0.60;;;23.00;99.90;;;;;;5065328;28;20098;-67
2023/07/24 11:19:48;;;;;;;0.60;0.28;;;22.80;99.90;;;;;;5067430;28;20047;-67
2023/07/24 11:22:14;;;;;;;1.05;0.35;;;22.50;99.90;;;;;;5069291;28;20739;-67
2023/07/24 11:24:47;;;;;;;0.50;0.20;;;22.20;99.90;;;;;;5050497;28;20043;-67
2023/07/24 11:27:14;;;;;;;0.82;0.40;;;22.10;99.90;;;;;;5050587;28;20392;-67
2023/07/24 11:29:40;;;;;;;1.75;0.60;;;22.00;99.90;;;;;;5051682;28;20047;-67
2023/07/24 11:32:06;;;;;;;1.35;0.60;;;22.00;99.90;;;;;;5069925;28;20046;-67
2023/07/24 11:34:33;;;;;;;2.92;0.68;;;22.00;99.90;;;;;;5070469;28;20443;-67
2023/07/24 11:36:59;;;;;;;1.58;0.30;;;22.00;99.90;;;;;;5066211;28;20473;-67
2023/07/24 11:39:25;;;;;;;0.75;0.38;;;22.00;99.90;;;;;;5052365;28;20461;-66
2023/07/24 11:41:51;;;;;;;0.98;0.40;;;22.10;99.90;;;;;;5067789;28;20040;-67
2023/07/24 11:44:27;;;;;;;2.08;0.57;;;22.20;99.90;;;;;;5070299;28;20060;-66
2023/07/24 11:47:01;;;;;;;1.80;0.50;;;22.30;99.90;;;;;;5050954;28;20045;-67
2023/07/24 11:49:30;;;;;;;1.80;0.65;;;22.60;99.90;;;;;;5066979;28;20045;-68
2023/07/24 11:52:00;;;;;;;0.80;0.30;;;23.10;99.90;;;;;;5067689;28;20040;-67
2023/07/24 11:54:26;;;;;;;1.15;0.38;;;23.50;99.90;;;;;;5069939;28;20130;-67
2023/07/24 11:56:52;;;;;;;1.17;0.52;;;23.70;99.90;;;;;;5067874;28;20047;-67
2023/07/24 11:59:18;;;;;;;0.63;0.40;;;23.90;99.90;;;;;;5051660;28;20040;-67
2023/07/24 12:01:48;;;;;;;0.95;0.30;;;24.30;99.90;;;;;;5067879;28;20145;-67
2023/07/24 12:04:15;;;;;;;0.50;0.40;;;24.60;99.90;;;;;;5051804;28;20116;-68
2023/07/24 12:06:41;;;;;;;0.85;0.40;;;24.80;99.90;;;;;;5069532;28;20045;-67
2023/07/24 12:09:07;;;;;;;2.28;0.40;;;25.20;99.90;;;;;;5069522;28;20076;-67
2023/07/24 12:11:33;;;;;;;1.48;0.60;;;25.60;99.90;;;;;;5068237;28;20112;-67
2023/07/24 12:13:59;;;;;;;0.45;0.40;;;26.10;99.90;;;;;;5070267;28;20132;-67
2023/07/24 12:16:24;;;;;;;0.60;0.30;;;26.50;99.90;;;;;;5067833;28;20516;-68
2023/07/24 12:18:50;;;;;;;0.40;0.20;;;26.60;99.90;;;;;;5050357;28;20095;-67
2023/07/24 12:21:16;;;;;;;0.75;0.22;;;26.60;99.90;;;;;;5070917;28;20116;-68
2023/07/24 12:23:42;;;;;;;0.52;0.25;;;26.30;99.90;;;;;;5072869;28;20530;-67
2023/07/24 12:26:07;;;;;;;17.08;8.68;;;25.70;99.90;;;;;;5053818;28;20045;-67
2023/07/24 12:28:33;;;;;;;1.42;0.77;;;25.20;99.90;;;;;;5054692;28;20287;-67
2023/07/24 12:30:59;;;;;;;1.48;0.55;;;24.70;99.90;;;;;;5053562;28;20446;-68
2023/07/24 12:33:25;;;;;;;0.88;0.47;;;24.50;99.90;;;;;;5073518;28;20068;-68
2023/07/24 12:35:51;;;;;;;0.85;0.28;;;24.60;99.90;;;;;;5054038;28;20127;-68
2023/07/24 12:38:17;;;;;;;4.05;0.43;;;25.10;99.90;;;;;;5053424;28;20080;-66
2023/07/24 12:40:43;;;;;;;2.35;0.47;;;25.60;99.90;;;;;;5072368;28;20067;-67
2023/07/24 12:43:09;;;;;;;1.23;0.52;;;25.90;99.90;;;;;;5073229;28;20181;-67
2023/07/24 12:45:35;;;;;;;0.60;0.32;;;25.80;99.90;;;;;;5071411;28;20048;-67